createdAt,value
2023-05-13T00:01:41.010Z,11.25
2023-05-13T00:04:08.248Z,11.65
2023-05-13T00:06:35.731Z,12.50
2023-05-13T00:09:02.791Z,14.00
2023-05-13T00:11:29.182Z,14.52
2023-05-13T00:13:56.681Z,14.25
2023-05-13T00:16:24.683Z,14.85
2023-05-13T00:18:51.216Z,14.00
2023-05-13T00:21:17.604Z,14.23
2023-05-13T00:23:44.598Z,13.20
2023-05-13T00:26:11.345Z,14.23
2023-05-13T00:28:37.710Z,15.13
2023-05-13T00:31:04.120Z,15.23
2023-05-13T00:33:30.519Z,15.13
2023-05-13T00:35:57.188Z,14.80
2023-05-13T00:38:23.589Z,15.90
2023-05-13T00:40:50.763Z,17.02
2023-05-13T00:43:17.189Z,15.07
2023-05-13T00:45:43.601Z,16.02
2023-05-13T00:48:10.348Z,16.10
2023-05-13T00:50:36.761Z,16.20
2023-05-13T00:53:06.652Z,14.77
2023-05-13T00:55:33.071Z,16.15
2023-05-13T00:58:00.259Z,15.45
2023-05-13T01:00:28.375Z,15.25
2023-05-13T01:03:02.681Z,15.57
2023-05-13T01:05:38.129Z,15.50
2023-05-13T01:08:16.729Z,16.92
2023-05-13T01:10:48.922Z,16.10
2023-05-13T01:13:20.560Z,16.70
2023-05-13T01:15:51.984Z,16.90
2023-05-13T01:18:22.669Z,17.80
2023-05-13T01:20:49.418Z,18.70
2023-05-13T01:23:16.386Z,18.75
2023-05-13T01:25:42.664Z,19.13
2023-05-13T01:28:09.424Z,18.05
2023-05-13T01:30:36.290Z,18.75
2023-05-13T01:33:03.073Z,19.65
2023-05-13T01:35:30.946Z,19.27
2023-05-13T01:37:57.633Z,19.40
2023-05-13T01:42:57.193Z,22.30
2023-05-13T01:45:23.511Z,18.30
2023-05-13T01:47:49.867Z,20.42
2023-05-13T01:50:16.185Z,19.45
2023-05-13T01:52:42.470Z,19.05
2023-05-13T01:55:09.165Z,20.95
2023-05-13T01:57:36.140Z,20.85
2023-05-13T02:00:03.454Z,18.70
2023-05-13T02:02:29.768Z,19.63
2023-05-13T02:04:56.122Z,18.95
2023-05-13T02:07:22.411Z,20.20
2023-05-13T02:09:48.684Z,20.55
2023-05-13T02:12:17.753Z,22.52
2023-05-13T02:14:44.681Z,21.50
2023-05-13T02:17:11.017Z,20.15
2023-05-13T02:19:37.310Z,21.33
2023-05-13T02:22:03.998Z,21.17
2023-05-13T02:24:30.648Z,22.65
2023-05-13T02:26:56.957Z,24.40
2023-05-13T02:29:23.256Z,21.92
2023-05-13T02:31:50.259Z,22.33
2023-05-13T02:34:16.544Z,21.90
2023-05-13T02:36:42.867Z,23.85
2023-05-13T02:39:09.128Z,22.55
2023-05-13T02:41:35.425Z,23.00
2023-05-13T02:44:01.720Z,22.67
2023-05-13T02:46:28.072Z,23.90
2023-05-13T02:48:55.050Z,23.30
2023-05-13T02:51:21.395Z,24.55
2023-05-13T02:53:47.908Z,22.38
2023-05-13T02:56:15.562Z,23.88
2023-05-13T02:58:41.868Z,23.73
2023-05-13T03:01:08.217Z,22.27
2023-05-13T03:03:34.736Z,23.40
2023-05-13T03:06:01.760Z,21.58
2023-05-13T03:08:28.058Z,23.17
2023-05-13T03:10:54.772Z,24.58
2023-05-13T03:13:21.166Z,23.40
2023-05-13T03:15:47.479Z,23.27
2023-05-13T03:18:13.760Z,24.20
2023-05-13T03:20:40.081Z,24.67
2023-05-13T03:23:07.040Z,23.88
2023-05-13T03:25:33.412Z,23.60
2023-05-13T03:27:59.917Z,25.15
2023-05-13T03:30:26.334Z,24.83
2023-05-13T03:32:52.791Z,25.00
2023-05-13T03:35:23.490Z,24.90
2023-05-13T03:37:49.765Z,25.50
2023-05-13T03:40:16.946Z,23.55
2023-05-13T03:42:43.318Z,24.05
2023-05-13T03:45:10.764Z,23.73
2023-05-13T03:47:38.400Z,23.80
2023-05-13T03:50:05.502Z,23.75
2023-05-13T03:52:31.788Z,23.02
2023-05-13T03:55:00.230Z,23.27
2023-05-13T03:57:27.139Z,22.98
2023-05-13T03:59:53.453Z,24.27
2023-05-13T04:02:21.005Z,23.40
2023-05-13T04:04:47.353Z,23.30
2023-05-13T04:07:13.682Z,23.67
2023-05-13T04:09:39.997Z,23.05
2023-05-13T04:12:06.702Z,23.92
2023-05-13T04:14:34.317Z,23.38
2023-05-13T04:17:00.712Z,24.15
2023-05-13T04:19:27.157Z,24.15
2023-05-13T04:21:53.403Z,23.67
2023-05-13T04:24:21.419Z,25.05
2023-05-13T04:26:47.749Z,24.15
2023-05-13T04:29:17.308Z,24.63
2023-05-13T04:31:44.400Z,24.20
2023-05-13T04:34:10.668Z,25.08
2023-05-13T04:36:36.974Z,24.17
2023-05-13T04:39:03.396Z,24.60
2023-05-13T04:41:29.719Z,25.20
2023-05-13T04:43:56.028Z,25.63
2023-05-13T04:46:22.450Z,26.17
2023-05-13T04:48:49.484Z,25.25
2023-05-13T04:51:16.381Z,24.02
2023-05-13T04:53:43.033Z,24.65
2023-05-13T04:56:09.276Z,25.48
2023-05-13T04:58:35.536Z,24.98
2023-05-13T05:01:01.784Z,24.67
2023-05-13T05:03:28.151Z,24.20
2023-05-13T05:05:55.080Z,23.60
2023-05-13T05:08:21.396Z,23.38
2023-05-13T05:10:47.677Z,22.70
2023-05-13T05:13:14.177Z,24.35
2023-05-13T05:15:40.932Z,23.40
2023-05-13T05:18:07.339Z,22.98
2023-05-13T05:20:33.691Z,23.55
2023-05-13T05:23:00.759Z,21.70
2023-05-13T05:25:27.106Z,21.40
2023-05-13T05:27:53.597Z,20.02
2023-05-13T05:30:20.326Z,23.30
2023-05-13T05:32:46.880Z,22.13
2023-05-13T05:35:15.074Z,23.85
2023-05-13T05:37:41.365Z,22.77
2023-05-13T05:40:09.668Z,23.25
2023-05-13T05:42:35.991Z,23.08
2023-05-13T05:45:02.312Z,22.35
2023-05-13T05:47:28.638Z,23.35
2023-05-13T05:49:57.827Z,22.23
2023-05-13T05:52:24.121Z,21.92
2023-05-13T05:54:50.403Z,23.90
2023-05-13T05:57:17.384Z,23.00
2023-05-13T05:59:43.700Z,20.98
2023-05-13T06:02:10.093Z,22.58
2023-05-13T06:04:36.422Z,21.83
2023-05-13T06:07:05.299Z,23.60
2023-05-13T06:09:31.666Z,22.35
2023-05-13T06:11:57.957Z,20.23
2023-05-13T06:14:24.904Z,20.80
2023-05-13T06:16:52.479Z,21.58
2023-05-13T06:19:19.867Z,21.40
2023-05-13T06:21:46.183Z,21.15
2023-05-13T06:24:12.488Z,21.42
2023-05-13T06:26:38.799Z,21.08
2023-05-13T06:29:05.142Z,19.75
2023-05-13T06:31:32.165Z,19.67
2023-05-13T06:33:58.486Z,19.95
2023-05-13T06:36:25.364Z,18.83
2023-05-13T06:38:53.296Z,19.35
2023-05-13T06:41:19.956Z,19.73
2023-05-13T06:43:48.053Z,18.33
2023-05-13T06:46:14.418Z,19.60
2023-05-13T06:48:44.311Z,19.35
2023-05-13T06:51:10.582Z,19.13
2023-05-13T06:53:36.871Z,19.77
2023-05-13T06:56:03.326Z,19.80
2023-05-13T06:58:29.615Z,19.35
2023-05-13T07:00:55.933Z,19.75
2023-05-13T07:03:22.755Z,19.98
2023-05-13T07:05:49.727Z,20.10
2023-05-13T07:08:17.225Z,19.50
2023-05-13T07:10:43.637Z,21.67
2023-05-13T07:13:10.906Z,20.63
2023-05-13T07:15:40.226Z,21.33
2023-05-13T07:18:06.867Z,21.75
2023-05-13T07:20:33.252Z,22.90
2023-05-13T07:23:00.247Z,22.48
2023-05-13T07:25:26.693Z,22.30
2023-05-13T07:27:52.989Z,21.42
2023-05-13T07:30:19.470Z,22.55
2023-05-13T07:32:45.803Z,22.05
2023-05-13T07:35:12.316Z,23.25
2023-05-13T07:37:38.653Z,22.00
2023-05-13T07:40:08.458Z,22.85
2023-05-13T07:42:34.987Z,21.50
2023-05-13T07:45:01.379Z,22.55
2023-05-13T07:47:28.321Z,22.20
2023-05-13T07:49:54.634Z,21.70
2023-05-13T07:52:20.989Z,21.05
2023-05-13T07:54:47.645Z,21.90
2023-05-13T07:57:14.643Z,21.20
2023-05-13T07:59:42.757Z,19.40
2023-05-13T08:02:10.910Z,19.85
2023-05-13T08:04:37.272Z,20.60
2023-05-13T08:07:04.239Z,20.77
2023-05-13T08:09:30.623Z,20.67
2023-05-13T08:11:57.224Z,20.33
2023-05-13T08:14:24.186Z,19.05
2023-05-13T08:16:50.559Z,18.65
2023-05-13T08:19:17.130Z,19.13
2023-05-13T08:21:43.760Z,18.73
2023-05-13T08:24:10.096Z,19.50
2023-05-13T08:26:37.367Z,17.98
2023-05-13T08:29:03.681Z,16.98
2023-05-13T08:31:31.495Z,17.00
2023-05-13T08:33:57.814Z,16.95
2023-05-13T08:36:25.265Z,16.75
2023-05-13T08:38:51.614Z,17.45
2023-05-13T08:41:19.350Z,16.42
2023-05-13T08:43:49.345Z,18.33
2023-05-13T08:46:18.093Z,21.33
2023-05-13T08:48:45.699Z,20.88
2023-05-13T08:51:12.419Z,21.55
2023-05-13T08:53:39.288Z,21.45
2023-05-13T08:56:12.419Z,20.80
2023-05-13T08:58:38.747Z,21.60
2023-05-13T09:01:06.515Z,21.23
2023-05-13T09:03:34.504Z,21.10
2023-05-13T09:06:02.217Z,21.95
2023-05-13T09:08:28.657Z,20.40
2023-05-13T09:10:55.277Z,20.33
2023-05-13T09:13:24.294Z,19.00
2023-05-13T09:15:50.860Z,19.63
2023-05-13T09:18:19.122Z,19.52
2023-05-13T09:20:46.128Z,16.58
2023-05-13T09:23:15.141Z,16.73
2023-05-13T09:25:41.460Z,16.92
2023-05-13T09:28:08.365Z,17.20
2023-05-13T09:30:37.762Z,17.75
2023-05-13T09:33:07.119Z,18.52
2023-05-13T09:35:34.196Z,18.95
2023-05-13T09:38:00.519Z,18.58
2023-05-13T09:40:27.725Z,19.35
2023-05-13T09:42:57.949Z,19.55
2023-05-13T09:45:25.778Z,18.17
2023-05-13T09:47:54.390Z,18.92
2023-05-13T09:50:21.842Z,17.90
2023-05-13T09:52:49.137Z,17.85
2023-05-13T09:55:15.729Z,17.00
2023-05-13T09:57:42.749Z,17.55
2023-05-13T10:00:15.004Z,15.65
2023-05-13T10:02:48.321Z,16.15
2023-05-13T10:05:17.550Z,15.75
2023-05-13T10:07:44.082Z,15.45
2023-05-13T10:10:11.020Z,16.05
2023-05-13T10:12:40.539Z,15.77
2023-05-13T10:15:09.491Z,15.00
2023-05-13T10:17:37.961Z,16.25
2023-05-13T10:20:05.843Z,15.57
2023-05-13T10:22:33.944Z,13.40
2023-05-13T10:25:02.670Z,13.85
2023-05-13T10:27:30.608Z,13.07
2023-05-13T10:29:58.019Z,13.00
2023-05-13T10:32:26.223Z,12.50
2023-05-13T10:34:57.354Z,11.60
2023-05-13T10:38:05.181Z,12.35
2023-05-13T10:40:52.670Z,11.95
2023-05-13T10:43:20.958Z,12.85
2023-05-13T10:45:49.254Z,12.52
2023-05-13T10:48:17.405Z,13.02
2023-05-13T10:50:55.354Z,12.48
2023-05-13T10:53:24.199Z,12.52
2023-05-13T10:55:55.771Z,11.88
2023-05-13T10:58:28.351Z,12.18
2023-05-13T11:01:12.863Z,11.13
2023-05-13T11:03:40.734Z,11.50
2023-05-13T11:06:18.678Z,10.27
2023-05-13T11:08:46.474Z,9.85
2023-05-13T11:11:34.435Z,9.73
2023-05-13T11:14:10.058Z,9.30
2023-05-13T11:16:37.039Z,8.55
2023-05-13T11:19:08.523Z,8.00
2023-05-13T11:21:38.821Z,8.55
2023-05-13T11:24:07.302Z,8.00
2023-05-13T11:26:44.640Z,8.40
2023-05-13T11:29:10.957Z,7.97
2023-05-13T11:31:46.054Z,8.93
2023-05-13T11:34:15.306Z,8.82
2023-05-13T11:36:45.276Z,8.85
2023-05-13T11:39:14.008Z,8.82
2023-05-13T11:41:42.732Z,9.13
2023-05-13T11:44:11.017Z,8.73
2023-05-13T11:46:37.382Z,9.20
2023-05-13T11:49:05.845Z,9.90
2023-05-13T11:51:34.406Z,8.43
2023-05-13T11:54:02.222Z,8.52
2023-05-13T11:56:29.373Z,8.50
2023-05-13T11:58:56.130Z,8.07
2023-05-13T12:01:22.591Z,7.18
2023-05-13T12:03:48.960Z,7.80
2023-05-13T12:06:18.125Z,6.88
2023-05-13T12:08:45.622Z,6.88
2023-05-13T12:11:12.619Z,6.45
2023-05-13T12:13:40.575Z,6.05
2023-05-13T12:16:07.262Z,7.10
2023-05-13T12:18:33.906Z,5.78
2023-05-13T12:21:00.244Z,6.40
2023-05-13T12:23:36.868Z,5.60
2023-05-13T12:26:07.379Z,5.68
2023-05-13T12:28:33.755Z,5.22
2023-05-13T12:31:04.850Z,5.10
2023-05-13T12:33:40.530Z,5.00
2023-05-13T12:36:19.211Z,5.70
2023-05-13T12:38:54.359Z,4.70
2023-05-13T12:41:22.272Z,5.38
2023-05-13T12:43:48.660Z,5.20
2023-05-13T12:46:15.052Z,5.47
2023-05-13T12:48:43.243Z,5.40
2023-05-13T12:51:09.569Z,4.97
2023-05-13T12:53:35.864Z,5.97
2023-05-13T12:56:02.241Z,5.55
2023-05-13T12:58:29.275Z,5.45
2023-05-13T13:00:55.593Z,5.30
2023-05-13T13:03:24.292Z,6.38
2023-05-13T13:05:51.374Z,6.20
2023-05-13T13:08:17.877Z,5.63
2023-05-13T13:10:44.168Z,4.85
2023-05-13T13:13:10.454Z,5.85
2023-05-13T13:15:37.813Z,5.45
2023-05-13T13:18:04.583Z,6.68
2023-05-13T13:20:30.952Z,5.60
2023-05-13T13:22:59.043Z,5.47
2023-05-13T13:25:26.083Z,5.93
2023-05-13T13:27:52.400Z,5.40
2023-05-13T13:30:21.347Z,6.10
2023-05-13T13:32:48.266Z,6.28
2023-05-13T13:35:14.784Z,5.90
2023-05-13T13:37:41.043Z,6.15
2023-05-13T13:40:08.488Z,6.07
2023-05-13T13:42:43.980Z,5.70
2023-05-13T13:45:12.068Z,5.10
2023-05-13T13:47:38.555Z,5.20
2023-05-13T13:50:06.541Z,5.00
2023-05-13T13:52:32.861Z,5.30
2023-05-13T13:54:59.703Z,6.30
2023-05-13T13:57:25.973Z,5.95
2023-05-13T13:59:57.666Z,5.30
2023-05-13T14:02:23.983Z,5.55
2023-05-13T14:04:50.376Z,5.88
2023-05-13T14:07:17.581Z,5.90
2023-05-13T14:09:43.967Z,5.95
2023-05-13T14:12:10.275Z,5.93
2023-05-13T14:14:36.549Z,5.13
2023-05-13T14:17:03.104Z,4.93
2023-05-13T14:19:29.455Z,5.25
2023-05-13T14:21:55.775Z,5.13
2023-05-13T14:24:22.988Z,4.90
2023-05-13T14:26:49.302Z,5.07
2023-05-13T14:29:15.674Z,4.28
2023-05-13T14:31:42.018Z,4.53
2023-05-13T14:34:08.328Z,4.28
2023-05-13T14:36:35.292Z,4.40
2023-05-13T14:39:01.654Z,4.10
2023-05-13T14:41:29.129Z,3.83
2023-05-13T14:43:55.413Z,3.67
2023-05-13T14:46:21.817Z,4.20
2023-05-13T14:48:48.074Z,4.80
2023-05-13T14:51:14.354Z,4.40
2023-05-13T14:53:41.852Z,3.88
2023-05-13T14:56:08.214Z,4.28
2023-05-13T14:58:35.424Z,4.07
2023-05-13T15:01:01.923Z,4.38
2023-05-13T15:03:28.334Z,4.00
2023-05-13T15:05:55.347Z,4.20
2023-05-13T15:08:21.871Z,3.92
2023-05-13T15:10:48.148Z,4.10
2023-05-13T15:13:14.434Z,3.88
2023-05-13T15:15:41.427Z,3.83
2023-05-13T15:18:07.731Z,3.53
2023-05-13T15:20:34.119Z,3.40
2023-05-13T15:23:00.425Z,3.85
2023-05-13T15:25:26.714Z,3.67
2023-05-13T15:27:53.445Z,3.78
2023-05-13T15:30:20.373Z,3.42
2023-05-13T15:32:47.581Z,3.75
2023-05-13T15:35:15.403Z,2.80
2023-05-13T15:37:42.173Z,3.95
2023-05-13T15:40:09.122Z,3.88
2023-05-13T15:42:36.007Z,4.68
2023-05-13T15:45:02.281Z,3.90
2023-05-13T15:47:28.741Z,4.00
2023-05-13T15:49:55.825Z,4.15
2023-05-13T15:52:22.099Z,3.85
2023-05-13T15:54:48.403Z,3.47
2023-05-13T15:57:14.790Z,3.65
2023-05-13T15:59:41.101Z,3.35
2023-05-13T16:02:07.464Z,2.90
2023-05-13T16:04:33.861Z,3.22
2023-05-13T16:07:00.868Z,3.08
2023-05-13T16:09:27.135Z,3.53
2023-05-13T16:11:54.821Z,3.30
2023-05-13T16:14:21.105Z,3.13
2023-05-13T16:16:47.504Z,3.00
2023-05-13T16:19:13.900Z,3.10
2023-05-13T16:21:40.923Z,2.88
2023-05-13T16:24:07.940Z,3.38
2023-05-13T16:26:34.312Z,3.50
2023-05-13T16:29:00.724Z,3.65
2023-05-13T16:31:27.045Z,3.85
2023-05-13T16:33:53.366Z,4.28
2023-05-13T16:36:19.673Z,3.55
2023-05-13T16:38:46.094Z,3.80
2023-05-13T16:41:13.046Z,3.60
2023-05-13T16:43:39.328Z,4.68
2023-05-13T16:46:05.700Z,4.78
2023-05-13T16:48:32.094Z,4.18
2023-05-13T16:50:58.402Z,4.43
2023-05-13T16:53:25.455Z,4.05
2023-05-13T16:55:51.807Z,4.25
2023-05-13T16:58:18.794Z,4.50
2023-05-13T17:00:45.406Z,4.82
2023-05-13T17:03:12.463Z,4.38
2023-05-13T17:05:38.950Z,4.20
2023-05-13T17:08:05.553Z,4.10
2023-05-13T17:10:31.898Z,4.28
2023-05-13T17:12:58.536Z,3.80
2023-05-13T17:15:25.650Z,3.55
2023-05-13T17:17:51.986Z,3.30
2023-05-13T17:20:18.831Z,3.20
2023-05-13T17:22:46.452Z,3.13
2023-05-13T17:25:12.981Z,3.10
2023-05-13T17:27:39.288Z,3.13
2023-05-13T17:30:06.898Z,3.00
2023-05-13T17:32:34.154Z,3.00
2023-05-13T17:35:00.501Z,2.67
2023-05-13T17:37:26.781Z,3.20
2023-05-13T17:39:54.028Z,2.83
2023-05-13T17:42:21.014Z,2.90
2023-05-13T17:44:47.372Z,3.10
2023-05-13T17:47:13.918Z,3.15
2023-05-13T17:49:40.865Z,3.40
2023-05-13T17:52:07.187Z,3.22
2023-05-13T17:54:33.508Z,3.00
2023-05-13T17:56:59.819Z,2.33
2023-05-13T17:59:26.176Z,3.03
2023-05-13T18:01:52.581Z,2.80
2023-05-13T18:04:18.896Z,2.83
2023-05-13T18:06:45.869Z,2.95
2023-05-13T18:09:12.171Z,2.88
2023-05-13T18:11:38.513Z,2.53
2023-05-13T18:14:06.009Z,2.78
2023-05-13T18:16:32.398Z,2.78
2023-05-13T18:18:58.743Z,2.80
2023-05-13T18:21:26.616Z,2.80
2023-05-13T18:23:53.563Z,3.10
2023-05-13T18:26:20.202Z,2.90
2023-05-13T18:28:46.538Z,2.55
2023-05-13T18:31:12.930Z,3.30
2023-05-13T18:33:39.301Z,2.63
2023-05-13T18:36:06.789Z,3.08
2023-05-13T18:38:33.150Z,2.70
2023-05-13T18:41:02.511Z,39.38
2023-05-13T18:43:29.019Z,27.20
2023-05-13T18:45:57.458Z,12.77
2023-05-13T18:48:24.438Z,5.57
2023-05-13T18:50:52.280Z,3.92
2023-05-13T18:53:18.794Z,3.90
2023-05-13T18:55:45.413Z,3.63
2023-05-13T18:58:12.779Z,3.30
2023-05-13T19:00:39.077Z,3.50
2023-05-13T19:03:05.540Z,3.45
2023-05-13T19:05:32.365Z,3.47
2023-05-13T19:07:59.754Z,3.47
2023-05-13T19:10:26.215Z,3.72
2023-05-13T19:12:52.547Z,3.10
2023-05-13T19:15:20.528Z,3.15
2023-05-13T19:17:46.879Z,3.28
2023-05-13T19:20:13.213Z,3.60
2023-05-13T19:22:39.486Z,3.90
2023-05-13T19:25:06.281Z,3.55
2023-05-13T19:27:32.709Z,3.58
2023-05-13T19:30:00.550Z,3.35
2023-05-13T19:32:27.641Z,2.92
2023-05-13T19:34:54.002Z,2.50
2023-05-13T19:37:20.291Z,1.48
2023-05-13T19:39:46.581Z,1.30
2023-05-13T19:42:14.689Z,1.30
2023-05-13T19:44:41.466Z,1.40
2023-05-13T19:47:08.421Z,1.58
2023-05-13T19:49:35.362Z,1.27
2023-05-13T19:52:01.834Z,1.45
2023-05-13T19:54:28.166Z,1.10
2023-05-13T19:56:54.498Z,1.27
2023-05-13T19:59:20.921Z,1.50
2023-05-13T20:01:47.254Z,1.60
2023-05-13T20:04:13.594Z,1.38
2023-05-13T20:06:40.586Z,1.77
2023-05-13T20:09:07.739Z,1.90
2023-05-13T20:11:34.053Z,2.17
2023-05-13T20:14:00.817Z,2.00
2023-05-13T20:16:28.074Z,1.80
2023-05-13T20:18:54.440Z,1.75
2023-05-13T20:21:20.854Z,2.13
2023-05-13T20:23:47.790Z,1.85
2023-05-13T20:26:14.205Z,2.10
2023-05-13T20:28:40.466Z,2.40
2023-05-13T20:31:06.773Z,2.50
2023-05-13T20:33:33.126Z,2.38
2023-05-13T20:35:59.450Z,2.20
2023-05-13T20:38:25.812Z,2.70
2023-05-13T20:40:52.815Z,2.80
2023-05-13T20:43:19.249Z,2.90
2023-05-13T20:45:45.603Z,3.05
2023-05-13T20:48:12.848Z,3.22
2023-05-13T20:50:39.287Z,3.03
2023-05-13T20:53:05.604Z,3.38
2023-05-13T20:55:32.067Z,4.00
2023-05-13T20:57:59.096Z,3.95
2023-05-13T21:00:25.726Z,3.72
2023-05-13T21:02:53.124Z,3.90
2023-05-13T21:05:19.919Z,4.28
2023-05-13T21:07:46.389Z,4.18
2023-05-13T21:10:12.799Z,4.57
2023-05-13T21:12:39.208Z,4.15
2023-05-13T21:15:07.887Z,4.60
2023-05-13T21:17:34.209Z,5.05
2023-05-13T21:20:00.648Z,7.05
2023-05-13T21:22:26.981Z,5.53
2023-05-13T21:24:53.428Z,5.35
2023-05-13T21:27:20.634Z,5.10
2023-05-13T21:29:47.040Z,5.22
2023-05-13T21:32:14.376Z,5.25
2023-05-13T21:34:40.694Z,5.85
2023-05-13T21:37:06.990Z,5.85
2023-05-13T21:39:33.318Z,5.55
2023-05-13T21:41:59.997Z,5.97
2023-05-13T21:44:26.889Z,6.43
2023-05-13T21:46:53.185Z,6.05
2023-05-13T21:49:20.170Z,5.90
2023-05-13T21:51:46.476Z,6.22
2023-05-13T21:54:12.734Z,5.80
2023-05-13T21:56:39.065Z,5.72
2023-05-13T21:59:05.363Z,5.47
2023-05-13T22:01:31.727Z,5.80
2023-05-13T22:03:58.053Z,5.50
2023-05-13T22:06:25.067Z,5.63
2023-05-13T22:08:51.384Z,5.05
2023-05-13T22:11:17.716Z,5.30
2023-05-13T22:13:43.992Z,5.97
2023-05-13T22:16:11.167Z,6.57
2023-05-13T22:18:38.359Z,6.18
2023-05-13T22:21:04.992Z,6.28
2023-05-13T22:23:32.002Z,6.13
2023-05-13T22:25:58.292Z,5.97
2023-05-13T22:28:24.712Z,7.90
2023-05-13T22:30:51.450Z,12.82
2023-05-13T22:33:18.171Z,12.85
2023-05-13T22:35:44.708Z,11.50
2023-05-13T22:38:11.018Z,11.02
2023-05-13T22:40:37.976Z,11.20
2023-05-13T22:43:04.306Z,10.60
2023-05-13T22:45:30.650Z,12.55
2023-05-13T22:47:56.996Z,14.43
2023-05-13T22:50:24.284Z,14.18
2023-05-13T23:00:33.765Z,16.77
2023-05-13T23:03:00.059Z,18.13
2023-05-13T23:05:26.451Z,23.15
2023-05-13T23:07:52.785Z,25.15
2023-05-13T23:10:19.106Z,25.85
2023-05-13T23:12:45.350Z,25.90
2023-05-13T23:15:14.055Z,27.02
2023-05-13T23:17:40.372Z,27.80
2023-05-13T23:20:07.886Z,29.98
2023-05-13T23:22:34.200Z,29.50
2023-05-13T23:25:00.473Z,28.95
2023-05-13T23:27:26.816Z,27.60
2023-05-13T23:29:53.081Z,28.13
2023-05-13T23:32:20.209Z,30.48
2023-05-13T23:34:46.489Z,28.17
2023-05-13T23:37:14.795Z,28.67
2023-05-13T23:39:41.168Z,29.48
2023-05-13T23:42:07.523Z,29.20
2023-05-13T23:44:33.834Z,28.80
2023-05-13T23:47:00.157Z,28.23
2023-05-13T23:49:27.115Z,26.70
2023-05-13T23:51:53.537Z,27.45
2023-05-13T23:54:19.897Z,28.30
2023-05-13T23:56:46.229Z,26.50
2023-05-13T23:59:12.602Z,26.73
